Overview Statistics Trail Chart Weather Telemetry Raw packets
 

This is the latest recevied weather packets stored in our database for station/object KI5NXU. If no packets are shown the sender has not sent any weather packets the latest 10 day(s).

<< 66 67 68 69 70 71 72 >>
Time Temp. Humidity Pressure Rain* Wind** Luminosity Snow
1787904842 26.11° C 59% 1017 hPa 0 mm - 0 W/m² -
1787904539 26.11° C 60% 1017.1 hPa 0 mm - 0 W/m² -
1787904237 25.56° C 61% 1017 hPa 0 mm - 0 W/m² -
1787903932 25.56° C 60% 1017 hPa 0 mm - 0 W/m² -
1787903629 26.11° C 59% 1017.2 hPa 0 mm - 0 W/m² -
1787903324 26.11° C 59% 1017 hPa 0 mm - 0 W/m² -
1787903020 26.67° C 58% 1017 hPa 0 mm - 0 W/m² -
1787902716 26.67° C 56% 1017.2 hPa 0 mm - 0 W/m² -
1787902411 27.22° C 56% 1017.3 hPa 0 mm - 0 W/m² -
1787902107 27.22° C 54% 1017.1 hPa 0 mm - 0 W/m² -
1787901802 27.22° C 55% 1017 hPa 0 mm - 0 W/m² -
1787901497 27.22° C 55% 1017.1 hPa 0 mm - 0 W/m² -
1787901194 27.22° C 54% 1017.1 hPa 0 mm - 0 W/m² -
1787900888 27.22° C 54% 1016.9 hPa 0 mm - 0 W/m² -
1787900584 26.67° C 57% 1017.2 hPa 0 mm - 0 W/m² -
1787900283 27.22° C 57% 1017.1 hPa 0 mm - 0 W/m² -
1787899977 27.22° C 55% 1017.1 hPa 0 mm - 0 W/m² -
1787899673 27.22° C 56% 1017 hPa 0 mm - 0 W/m² -
1787899369 27.78° C 55% 1017.1 hPa 0 mm - 0 W/m² -
1787899063 27.78° C 55% 1017 hPa 0 mm - 0 W/m² -
1787898758 27.78° C 55% 1016.9 hPa 0 mm - 0 W/m² -
1787898458 28.33° C 54% 1016.8 hPa 0 mm - 0 W/m² -
1787898158 28.89° C 51% 1017 hPa 0 mm - 0 W/m² -
1787897853 28.89° C 50% 1017 hPa 0 mm - 0 W/m² -
1787897546 28.89° C 50% 1016.9 hPa 0 mm - 0 W/m² -

* Rain latest hour (hover to see other rain measurements)
** Current wind speed in m/s (hover to see current wind gust speed)